sensor_id;sensor_type;location;lat;lon;timestamp;temperature;humidity
25192;DHT22;13143;50.924;5.320;2023-08-31T00:02:10;16.00;99.90
25192;DHT22;13143;50.924;5.320;2023-08-31T00:04:36;15.90;99.90
25192;DHT22;13143;50.924;5.320;2023-08-31T00:07:01;15.90;99.90
25192;DHT22;13143;50.924;5.320;2023-08-31T00:09:27;15.90;99.90
25192;DHT22;13143;50.924;5.320;2023-08-31T00:11:54;15.90;99.90
25192;DHT22;13143;50.924;5.320;2023-08-31T00:14:22;15.80;99.90
25192;DHT22;13143;50.924;5.320;2023-08-31T00:16:48;15.80;99.90
25192;DHT22;13143;50.924;5.320;2023-08-31T00:19:14;15.80;99.90
25192;DHT22;13143;50.924;5.320;2023-08-31T00:21:40;15.80;99.90
25192;DHT22;13143;50.924;5.320;2023-08-31T00:24:06;15.70;99.90
25192;DHT22;13143;50.924;5.320;2023-08-31T00:26:33;15.70;99.90
25192;DHT22;13143;50.924;5.320;2023-08-31T00:28:59;15.70;99.90
25192;DHT22;13143;50.924;5.320;2023-08-31T00:31:25;15.70;99.90
25192;DHT22;13143;50.924;5.320;2023-08-31T00:33:53;15.70;99.90
25192;DHT22;13143;50.924;5.320;2023-08-31T00:36:18;15.70;99.90
25192;DHT22;13143;50.924;5.320;2023-08-31T00:38:44;15.70;99.90
25192;DHT22;13143;50.924;5.320;2023-08-31T00:41:11;15.60;99.90
25192;DHT22;13143;50.924;5.320;2023-08-31T00:43:37;15.60;99.90
25192;DHT22;13143;50.924;5.320;2023-08-31T00:46:03;15.60;99.90
25192;DHT22;13143;50.924;5.320;2023-08-31T00:48:29;15.60;99.90
25192;DHT22;13143;50.924;5.320;2023-08-31T00:50:55;15.60;99.90
25192;DHT22;13143;50.924;5.320;2023-08-31T00:53:21;15.50;99.90
25192;DHT22;13143;50.924;5.320;2023-08-31T00:55:47;15.50;99.90
25192;DHT22;13143;50.924;5.320;2023-08-31T00:58:13;15.50;99.90
25192;DHT22;13143;50.924;5.320;2023-08-31T01:01:11;15.50;99.90
25192;DHT22;13143;50.924;5.320;2023-08-31T01:03:50;15.40;99.90
25192;DHT22;13143;50.924;5.320;2023-08-31T01:12:07;15.40;99.90
25192;DHT22;13143;50.924;5.320;2023-08-31T01:14:47;15.40;99.90
25192;DHT22;13143;50.924;5.320;2023-08-31T01:17:15;15.30;99.90
25192;DHT22;13143;50.924;5.320;2023-08-31T01:19:49;15.30;99.90
25192;DHT22;13143;50.924;5.320;2023-08-31T01:25:01;15.30;99.90
25192;DHT22;13143;50.924;5.320;2023-08-31T01:27:31;15.30;99.90
25192;DHT22;13143;50.924;5.320;2023-08-31T01:29:57;15.30;99.90
25192;DHT22;13143;50.924;5.320;2023-08-31T01:32:23;15.30;99.90
25192;DHT22;13143;50.924;5.320;2023-08-31T01:34:50;15.20;99.90
25192;DHT22;13143;50.924;5.320;2023-08-31T01:37:51;15.30;99.90
25192;DHT22;13143;50.924;5.320;2023-08-31T01:40:23;15.20;99.90
25192;DHT22;13143;50.924;5.320;2023-08-31T01:42:50;15.20;99.90
25192;DHT22;13143;50.924;5.320;2023-08-31T01:45:21;15.20;99.90
25192;DHT22;13143;50.924;5.320;2023-08-31T01:47:48;15.20;99.90
25192;DHT22;13143;50.924;5.320;2023-08-31T01:50:13;15.10;99.90
25192;DHT22;13143;50.924;5.320;2023-08-31T01:52:39;15.20;99.90
25192;DHT22;13143;50.924;5.320;2023-08-31T01:55:05;15.10;99.90
25192;DHT22;13143;50.924;5.320;2023-08-31T01:57:32;15.10;99.90
25192;DHT22;13143;50.924;5.320;2023-08-31T01:59:59;15.10;99.90
25192;DHT22;13143;50.924;5.320;2023-08-31T02:02:24;15.10;99.90
25192;DHT22;13143;50.924;5.320;2023-08-31T02:04:51;15.10;99.90
25192;DHT22;13143;50.924;5.320;2023-08-31T02:07:17;15.10;99.90
25192;DHT22;13143;50.924;5.320;2023-08-31T02:09:44;15.10;99.90
25192;DHT22;13143;50.924;5.320;2023-08-31T02:12:10;15.10;99.90
25192;DHT22;13143;50.924;5.320;2023-08-31T02:14:36;15.00;99.90
25192;DHT22;13143;50.924;5.320;2023-08-31T02:17:02;15.00;99.90
25192;DHT22;13143;50.924;5.320;2023-08-31T02:19:27;15.00;99.90
25192;DHT22;13143;50.924;5.320;2023-08-31T02:21:54;15.00;99.90
25192;DHT22;13143;50.924;5.320;2023-08-31T02:24:20;15.00;99.90
25192;DHT22;13143;50.924;5.320;2023-08-31T02:26:45;15.00;99.90
25192;DHT22;13143;50.924;5.320;2023-08-31T02:29:11;15.00;99.90
25192;DHT22;13143;50.924;5.320;2023-08-31T02:31:37;15.00;99.90
25192;DHT22;13143;50.924;5.320;2023-08-31T02:34:03;14.90;99.90
25192;DHT22;13143;50.924;5.320;2023-08-31T02:36:29;14.90;99.90
25192;DHT22;13143;50.924;5.320;2023-08-31T02:38:56;14.90;99.90
25192;DHT22;13143;50.924;5.320;2023-08-31T02:41:31;14.90;99.90
25192;DHT22;13143;50.924;5.320;2023-08-31T02:43:57;14.90;99.90
25192;DHT22;13143;50.924;5.320;2023-08-31T02:46:23;14.90;99.90
25192;DHT22;13143;50.924;5.320;2023-08-31T02:48:49;14.90;99.90
25192;DHT22;13143;50.924;5.320;2023-08-31T02:51:15;14.90;99.90
25192;DHT22;13143;50.924;5.320;2023-08-31T02:53:40;14.90;99.90
25192;DHT22;13143;50.924;5.320;2023-08-31T02:56:06;14.80;99.90
25192;DHT22;13143;50.924;5.320;2023-08-31T02:58:33;14.80;99.90
25192;DHT22;13143;50.924;5.320;2023-08-31T03:01:12;14.80;99.90
25192;DHT22;13143;50.924;5.320;2023-08-31T03:03:38;14.80;99.90
25192;DHT22;13143;50.924;5.320;2023-08-31T03:06:07;14.80;99.90
25192;DHT22;13143;50.924;5.320;2023-08-31T03:08:34;14.80;99.90
25192;DHT22;13143;50.924;5.320;2023-08-31T03:11:05;14.80;99.90
25192;DHT22;13143;50.924;5.320;2023-08-31T03:13:31;14.80;99.90
25192;DHT22;13143;50.924;5.320;2023-08-31T03:15:57;14.70;99.90
25192;DHT22;13143;50.924;5.320;2023-08-31T03:18:23;14.70;99.90
25192;DHT22;13143;50.924;5.320;2023-08-31T03:20:49;14.70;99.90
25192;DHT22;13143;50.924;5.320;2023-08-31T03:23:15;14.70;99.90
25192;DHT22;13143;50.924;5.320;2023-08-31T03:25:41;14.70;99.90
25192;DHT22;13143;50.924;5.320;2023-08-31T03:28:07;14.70;99.90
25192;DHT22;13143;50.924;5.320;2023-08-31T03:30:33;14.70;99.90
25192;DHT22;13143;50.924;5.320;2023-08-31T03:32:58;14.70;99.90
25192;DHT22;13143;50.924;5.320;2023-08-31T03:35:24;14.70;99.90
25192;DHT22;13143;50.924;5.320;2023-08-31T03:37:56;14.60;99.90
25192;DHT22;13143;50.924;5.320;2023-08-31T03:40:22;14.60;99.90
25192;DHT22;13143;50.924;5.320;2023-08-31T03:42:50;14.60;99.90
25192;DHT22;13143;50.924;5.320;2023-08-31T03:45:17;14.60;99.90
25192;DHT22;13143;50.924;5.320;2023-08-31T03:47:43;14.60;99.90
25192;DHT22;13143;50.924;5.320;2023-08-31T03:50:10;14.60;99.90
25192;DHT22;13143;50.924;5.320;2023-08-31T03:52:35;14.60;99.90
25192;DHT22;13143;50.924;5.320;2023-08-31T03:55:01;14.60;99.90
25192;DHT22;13143;50.924;5.320;2023-08-31T03:57:27;14.60;99.90
25192;DHT22;13143;50.924;5.320;2023-08-31T03:59:52;14.60;99.90
25192;DHT22;13143;50.924;5.320;2023-08-31T04:02:18;14.60;99.90
25192;DHT22;13143;50.924;5.320;2023-08-31T04:04:44;14.60;99.90
25192;DHT22;13143;50.924;5.320;2023-08-31T04:07:10;14.50;99.90
25192;DHT22;13143;50.924;5.320;2023-08-31T04:09:35;14.50;99.90
25192;DHT22;13143;50.924;5.320;2023-08-31T04:12:01;14.50;99.90
25192;DHT22;13143;50.924;5.320;2023-08-31T04:14:27;14.50;99.90
25192;DHT22;13143;50.924;5.320;2023-08-31T04:16:56;14.50;99.90
25192;DHT22;13143;50.924;5.320;2023-08-31T04:19:22;14.50;99.90
25192;DHT22;13143;50.924;5.320;2023-08-31T04:21:48;14.50;99.90
25192;DHT22;13143;50.924;5.320;2023-08-31T04:24:14;14.50;99.90
25192;DHT22;13143;50.924;5.320;2023-08-31T04:26:40;14.50;99.90
25192;DHT22;13143;50.924;5.320;2023-08-31T04:29:06;14.50;99.90
25192;DHT22;13143;50.924;5.320;2023-08-31T04:31:32;14.50;99.90
25192;DHT22;13143;50.924;5.320;2023-08-31T04:33:58;14.40;99.90
25192;DHT22;13143;50.924;5.320;2023-08-31T04:36:24;14.40;99.90
25192;DHT22;13143;50.924;5.320;2023-08-31T04:38:51;14.40;99.90
25192;DHT22;13143;50.924;5.320;2023-08-31T04:41:18;14.40;99.90
25192;DHT22;13143;50.924;5.320;2023-08-31T04:43:44;14.40;99.90
25192;DHT22;13143;50.924;5.320;2023-08-31T04:46:09;14.40;99.90
25192;DHT22;13143;50.924;5.320;2023-08-31T04:48:36;14.40;99.90
25192;DHT22;13143;50.924;5.320;2023-08-31T04:51:02;14.40;99.90
25192;DHT22;13143;50.924;5.320;2023-08-31T04:53:29;14.40;99.90
25192;DHT22;13143;50.924;5.320;2023-08-31T04:55:55;14.40;99.90
25192;DHT22;13143;50.924;5.320;2023-08-31T04:58:21;14.40;99.90
25192;DHT22;13143;50.924;5.320;2023-08-31T05:00:47;14.40;99.90
25192;DHT22;13143;50.924;5.320;2023-08-31T05:03:13;14.40;99.90
25192;DHT22;13143;50.924;5.320;2023-08-31T05:05:39;14.40;99.90
25192;DHT22;13143;50.924;5.320;2023-08-31T05:08:05;14.40;99.90
25192;DHT22;13143;50.924;5.320;2023-08-31T05:10:31;14.40;99.90
25192;DHT22;13143;50.924;5.320;2023-08-31T05:12:56;14.30;99.90
25192;DHT22;13143;50.924;5.320;2023-08-31T05:15:22;14.30;99.90
25192;DHT22;13143;50.924;5.320;2023-08-31T05:17:48;14.30;99.90
25192;DHT22;13143;50.924;5.320;2023-08-31T05:20:14;14.30;99.90
25192;DHT22;13143;50.924;5.320;2023-08-31T05:22:40;14.30;99.90
25192;DHT22;13143;50.924;5.320;2023-08-31T05:25:06;14.30;99.90
25192;DHT22;13143;50.924;5.320;2023-08-31T05:27:32;14.30;99.90
25192;DHT22;13143;50.924;5.320;2023-08-31T05:29:57;14.30;99.90
25192;DHT22;13143;50.924;5.320;2023-08-31T05:32:23;14.30;99.90
25192;DHT22;13143;50.924;5.320;2023-08-31T05:34:49;14.30;99.90
25192;DHT22;13143;50.924;5.320;2023-08-31T05:37:14;14.30;99.90
25192;DHT22;13143;50.924;5.320;2023-08-31T05:39:40;14.30;99.90
25192;DHT22;13143;50.924;5.320;2023-08-31T05:42:06;14.30;99.90
25192;DHT22;13143;50.924;5.320;2023-08-31T05:44:31;14.30;99.90
25192;DHT22;13143;50.924;5.320;2023-08-31T05:46:57;14.30;99.90
25192;DHT22;13143;50.924;5.320;2023-08-31T05:49:23;14.30;99.90
25192;DHT22;13143;50.924;5.320;2023-08-31T05:51:49;14.30;99.90
25192;DHT22;13143;50.924;5.320;2023-08-31T05:54:16;14.30;99.90
25192;DHT22;13143;50.924;5.320;2023-08-31T05:56:41;14.30;99.90
25192;DHT22;13143;50.924;5.320;2023-08-31T05:59:07;14.40;99.90
25192;DHT22;13143;50.924;5.320;2023-08-31T06:01:35;14.40;99.90
25192;DHT22;13143;50.924;5.320;2023-08-31T06:04:02;14.40;99.90
25192;DHT22;13143;50.924;5.320;2023-08-31T06:06:29;14.40;99.90
25192;DHT22;13143;50.924;5.320;2023-08-31T06:08:55;14.40;99.90
25192;DHT22;13143;50.924;5.320;2023-08-31T06:11:22;14.40;99.90
25192;DHT22;13143;50.924;5.320;2023-08-31T06:13:48;14.40;99.90
25192;DHT22;13143;50.924;5.320;2023-08-31T06:16:13;14.40;99.90
25192;DHT22;13143;50.924;5.320;2023-08-31T06:18:39;14.40;99.90
25192;DHT22;13143;50.924;5.320;2023-08-31T06:21:05;14.40;99.90
25192;DHT22;13143;50.924;5.320;2023-08-31T06:23:30;14.40;99.90
25192;DHT22;13143;50.924;5.320;2023-08-31T06:25:56;14.50;99.90
25192;DHT22;13143;50.924;5.320;2023-08-31T06:28:22;14.50;99.90
25192;DHT22;13143;50.924;5.320;2023-08-31T06:30:48;14.50;99.90
25192;DHT22;13143;50.924;5.320;2023-08-31T06:33:14;14.50;99.90
25192;DHT22;13143;50.924;5.320;2023-08-31T06:35:40;14.50;99.90
25192;DHT22;13143;50.924;5.320;2023-08-31T06:38:06;14.50;99.90
25192;DHT22;13143;50.924;5.320;2023-08-31T06:40:32;14.50;99.90
25192;DHT22;13143;50.924;5.320;2023-08-31T06:42:58;14.60;99.90
25192;DHT22;13143;50.924;5.320;2023-08-31T06:45:25;14.60;99.90
25192;DHT22;13143;50.924;5.320;2023-08-31T06:47:50;14.60;99.90
25192;DHT22;13143;50.924;5.320;2023-08-31T06:50:16;14.60;99.90
25192;DHT22;13143;50.924;5.320;2023-08-31T06:52:42;14.60;99.90
25192;DHT22;13143;50.924;5.320;2023-08-31T06:55:09;14.60;99.90
25192;DHT22;13143;50.924;5.320;2023-08-31T06:57:36;14.60;99.90
25192;DHT22;13143;50.924;5.320;2023-08-31T07:00:03;14.70;99.90
25192;DHT22;13143;50.924;5.320;2023-08-31T07:02:29;14.70;99.90
25192;DHT22;13143;50.924;5.320;2023-08-31T07:04:55;14.70;99.90
25192;DHT22;13143;50.924;5.320;2023-08-31T07:07:21;14.70;99.90
25192;DHT22;13143;50.924;5.320;2023-08-31T07:09:47;14.80;99.90
25192;DHT22;13143;50.924;5.320;2023-08-31T07:12:14;14.80;99.90
25192;DHT22;13143;50.924;5.320;2023-08-31T07:14:40;14.80;99.90
25192;DHT22;13143;50.924;5.320;2023-08-31T07:17:05;14.80;99.90
25192;DHT22;13143;50.924;5.320;2023-08-31T07:19:31;14.90;99.90
25192;DHT22;13143;50.924;5.320;2023-08-31T07:21:57;14.80;99.90
25192;DHT22;13143;50.924;5.320;2023-08-31T07:24:23;14.90;99.90
25192;DHT22;13143;50.924;5.320;2023-08-31T07:26:50;14.90;99.90
25192;DHT22;13143;50.924;5.320;2023-08-31T07:29:16;14.90;99.90
25192;DHT22;13143;50.924;5.320;2023-08-31T07:31:41;14.90;99.90
25192;DHT22;13143;50.924;5.320;2023-08-31T07:34:07;15.00;99.90
25192;DHT22;13143;50.924;5.320;2023-08-31T07:36:33;15.00;99.90
25192;DHT22;13143;50.924;5.320;2023-08-31T07:38:59;15.00;99.90
25192;DHT22;13143;50.924;5.320;2023-08-31T07:41:25;15.00;99.90
25192;DHT22;13143;50.924;5.320;2023-08-31T07:43:50;15.00;99.90
25192;DHT22;13143;50.924;5.320;2023-08-31T07:46:17;15.10;99.90
25192;DHT22;13143;50.924;5.320;2023-08-31T07:48:43;15.10;99.90
25192;DHT22;13143;50.924;5.320;2023-08-31T07:51:09;15.10;99.90
25192;DHT22;13143;50.924;5.320;2023-08-31T07:53:34;15.10;99.90
25192;DHT22;13143;50.924;5.320;2023-08-31T07:56:00;15.20;99.90
25192;DHT22;13143;50.924;5.320;2023-08-31T07:58:26;15.20;99.90
25192;DHT22;13143;50.924;5.320;2023-08-31T08:00:53;15.20;99.90
25192;DHT22;13143;50.924;5.320;2023-08-31T08:03:20;15.20;99.90
25192;DHT22;13143;50.924;5.320;2023-08-31T08:05:46;15.30;99.90
25192;DHT22;13143;50.924;5.320;2023-08-31T08:08:12;15.30;99.90
25192;DHT22;13143;50.924;5.320;2023-08-31T08:10:38;15.30;99.90
25192;DHT22;13143;50.924;5.320;2023-08-31T08:13:04;15.30;99.90
25192;DHT22;13143;50.924;5.320;2023-08-31T08:15:30;15.40;99.90
25192;DHT22;13143;50.924;5.320;2023-08-31T08:17:56;15.40;99.90
25192;DHT22;13143;50.924;5.320;2023-08-31T08:20:26;15.40;99.90
25192;DHT22;13143;50.924;5.320;2023-08-31T08:22:52;15.40;99.90
25192;DHT22;13143;50.924;5.320;2023-08-31T08:25:19;15.50;99.90
25192;DHT22;13143;50.924;5.320;2023-08-31T08:27:45;15.50;99.90
25192;DHT22;13143;50.924;5.320;2023-08-31T08:30:11;15.60;99.90
25192;DHT22;13143;50.924;5.320;2023-08-31T08:32:37;15.60;99.90
25192;DHT22;13143;50.924;5.320;2023-08-31T08:35:02;15.60;99.90
25192;DHT22;13143;50.924;5.320;2023-08-31T08:37:29;15.60;99.90
25192;DHT22;13143;50.924;5.320;2023-08-31T08:39:57;15.70;99.90
25192;DHT22;13143;50.924;5.320;2023-08-31T08:42:24;15.70;99.90
25192;DHT22;13143;50.924;5.320;2023-08-31T08:44:50;15.70;99.90
25192;DHT22;13143;50.924;5.320;2023-08-31T08:47:17;15.80;99.90
25192;DHT22;13143;50.924;5.320;2023-08-31T08:49:43;15.80;99.90
25192;DHT22;13143;50.924;5.320;2023-08-31T08:52:10;15.80;99.90
25192;DHT22;13143;50.924;5.320;2023-08-31T08:54:36;15.80;99.90
25192;DHT22;13143;50.924;5.320;2023-08-31T08:57:03;15.90;99.90
25192;DHT22;13143;50.924;5.320;2023-08-31T08:59:30;15.90;99.90
25192;DHT22;13143;50.924;5.320;2023-08-31T09:01:56;15.90;99.90
25192;DHT22;13143;50.924;5.320;2023-08-31T09:04:22;15.90;99.90
25192;DHT22;13143;50.924;5.320;2023-08-31T09:06:50;16.00;99.90
25192;DHT22;13143;50.924;5.320;2023-08-31T09:09:15;16.00;99.90
25192;DHT22;13143;50.924;5.320;2023-08-31T09:11:43;16.00;99.90
25192;DHT22;13143;50.924;5.320;2023-08-31T09:14:16;16.10;99.90
25192;DHT22;13143;50.924;5.320;2023-08-31T09:16:45;16.10;99.90
25192;DHT22;13143;50.924;5.320;2023-08-31T09:19:19;16.10;99.90
25192;DHT22;13143;50.924;5.320;2023-08-31T09:21:46;16.20;99.90
25192;DHT22;13143;50.924;5.320;2023-08-31T09:24:12;16.20;99.90
25192;DHT22;13143;50.924;5.320;2023-08-31T09:26:40;16.20;99.90
25192;DHT22;13143;50.924;5.320;2023-08-31T09:29:08;16.30;99.90
25192;DHT22;13143;50.924;5.320;2023-08-31T09:31:34;16.30;99.90
25192;DHT22;13143;50.924;5.320;2023-08-31T09:34:01;16.30;99.90
25192;DHT22;13143;50.924;5.320;2023-08-31T09:36:27;16.40;99.90
25192;DHT22;13143;50.924;5.320;2023-08-31T09:38:57;16.40;99.90
25192;DHT22;13143;50.924;5.320;2023-08-31T09:41:24;16.40;99.90
25192;DHT22;13143;50.924;5.320;2023-08-31T09:43:50;16.40;99.90
25192;DHT22;13143;50.924;5.320;2023-08-31T09:46:16;16.50;99.90
25192;DHT22;13143;50.924;5.320;2023-08-31T09:48:42;16.50;99.90
25192;DHT22;13143;50.924;5.320;2023-08-31T09:51:10;16.50;99.90
25192;DHT22;13143;50.924;5.320;2023-08-31T09:53:37;16.60;99.90
25192;DHT22;13143;50.924;5.320;2023-08-31T09:56:05;16.60;99.90
25192;DHT22;13143;50.924;5.320;2023-08-31T09:58:31;16.60;99.90
25192;DHT22;13143;50.924;5.320;2023-08-31T10:00:58;16.70;99.90
25192;DHT22;13143;50.924;5.320;2023-08-31T10:03:26;16.70;99.90
25192;DHT22;13143;50.924;5.320;2023-08-31T10:05:54;16.70;99.90
25192;DHT22;13143;50.924;5.320;2023-08-31T10:08:20;16.80;99.90
25192;DHT22;13143;50.924;5.320;2023-08-31T10:10:47;16.80;99.90
25192;DHT22;13143;50.924;5.320;2023-08-31T10:13:14;16.90;99.90
25192;DHT22;13143;50.924;5.320;2023-08-31T10:15:43;16.90;99.90
25192;DHT22;13143;50.924;5.320;2023-08-31T10:18:09;16.90;99.90
25192;DHT22;13143;50.924;5.320;2023-08-31T10:20:35;17.00;99.90
25192;DHT22;13143;50.924;5.320;2023-08-31T10:23:05;17.00;99.90
25192;DHT22;13143;50.924;5.320;2023-08-31T10:31:07;17.10;99.90
25192;DHT22;13143;50.924;5.320;2023-08-31T10:33:47;17.20;99.90
25192;DHT22;13143;50.924;5.320;2023-08-31T10:38:42;17.20;99.90
25192;DHT22;13143;50.924;5.320;2023-08-31T10:43:56;17.30;99.90
25192;DHT22;13143;50.924;5.320;2023-08-31T10:46:35;17.30;99.90
25192;DHT22;13143;50.924;5.320;2023-08-31T10:51:41;17.40;99.90
25192;DHT22;13143;50.924;5.320;2023-08-31T10:54:21;17.40;99.90
25192;DHT22;13143;50.924;5.320;2023-08-31T11:02:55;17.50;99.90
25192;DHT22;13143;50.924;5.320;2023-08-31T11:07:31;17.60;99.90
25192;DHT22;13143;50.924;5.320;2023-08-31T11:10:14;17.60;99.90
25192;DHT22;13143;50.924;5.320;2023-08-31T11:12:42;17.70;99.90
25192;DHT22;13143;50.924;5.320;2023-08-31T11:15:10;17.70;99.90
25192;DHT22;13143;50.924;5.320;2023-08-31T11:17:36;17.70;99.90
25192;DHT22;13143;50.924;5.320;2023-08-31T11:20:06;17.80;99.90
25192;DHT22;13143;50.924;5.320;2023-08-31T11:22:32;17.80;99.90
25192;DHT22;13143;50.924;5.320;2023-08-31T11:24:59;17.80;99.90
25192;DHT22;13143;50.924;5.320;2023-08-31T11:27:25;17.90;99.90
25192;DHT22;13143;50.924;5.320;2023-08-31T11:29:50;17.90;99.90
25192;DHT22;13143;50.924;5.320;2023-08-31T11:32:16;17.90;99.90
25192;DHT22;13143;50.924;5.320;2023-08-31T11:34:43;18.00;99.90
25192;DHT22;13143;50.924;5.320;2023-08-31T11:37:11;18.00;99.90
25192;DHT22;13143;50.924;5.320;2023-08-31T11:39:40;18.00;99.90
25192;DHT22;13143;50.924;5.320;2023-08-31T11:42:06;18.10;99.90
25192;DHT22;13143;50.924;5.320;2023-08-31T11:44:32;18.10;99.90
25192;DHT22;13143;50.924;5.320;2023-08-31T11:46:58;18.10;99.90
25192;DHT22;13143;50.924;5.320;2023-08-31T11:49:26;18.10;99.90
25192;DHT22;13143;50.924;5.320;2023-08-31T11:51:52;18.20;99.90
25192;DHT22;13143;50.924;5.320;2023-08-31T11:54:18;18.20;99.90
25192;DHT22;13143;50.924;5.320;2023-08-31T11:56:45;18.20;99.90
25192;DHT22;13143;50.924;5.320;2023-08-31T11:59:16;18.30;99.90
25192;DHT22;13143;50.924;5.320;2023-08-31T12:01:49;18.30;99.90
25192;DHT22;13143;50.924;5.320;2023-08-31T12:04:19;18.30;99.90
25192;DHT22;13143;50.924;5.320;2023-08-31T12:06:50;18.40;99.90
25192;DHT22;13143;50.924;5.320;2023-08-31T12:09:17;18.40;99.90
25192;DHT22;13143;50.924;5.320;2023-08-31T12:11:49;18.40;99.90
25192;DHT22;13143;50.924;5.320;2023-08-31T12:14:23;18.40;99.90
25192;DHT22;13143;50.924;5.320;2023-08-31T12:16:49;18.40;99.90
25192;DHT22;13143;50.924;5.320;2023-08-31T12:19:15;18.40;99.90
25192;DHT22;13143;50.924;5.320;2023-08-31T12:21:45;18.40;99.90
25192;DHT22;13143;50.924;5.320;2023-08-31T12:24:12;18.50;99.90
25192;DHT22;13143;50.924;5.320;2023-08-31T12:26:38;18.50;99.90
25192;DHT22;13143;50.924;5.320;2023-08-31T12:29:04;18.50;99.90
25192;DHT22;13143;50.924;5.320;2023-08-31T12:31:30;18.50;99.90
25192;DHT22;13143;50.924;5.320;2023-08-31T12:33:56;18.60;99.90
25192;DHT22;13143;50.924;5.320;2023-08-31T12:36:22;18.60;99.90
25192;DHT22;13143;50.924;5.320;2023-08-31T12:38:48;18.60;99.90
25192;DHT22;13143;50.924;5.320;2023-08-31T12:41:13;18.60;99.90
25192;DHT22;13143;50.924;5.320;2023-08-31T12:43:39;18.60;99.90
25192;DHT22;13143;50.924;5.320;2023-08-31T12:46:05;18.70;99.90
25192;DHT22;13143;50.924;5.320;2023-08-31T12:48:32;18.70;99.90
25192;DHT22;13143;50.924;5.320;2023-08-31T12:50:58;18.70;99.90
25192;DHT22;13143;50.924;5.320;2023-08-31T12:53:24;18.70;99.90
25192;DHT22;13143;50.924;5.320;2023-08-31T12:55:49;18.80;99.90
25192;DHT22;13143;50.924;5.320;2023-08-31T12:58:16;18.80;99.90
25192;DHT22;13143;50.924;5.320;2023-08-31T13:00:42;18.80;99.90
25192;DHT22;13143;50.924;5.320;2023-08-31T13:03:11;18.80;99.90
25192;DHT22;13143;50.924;5.320;2023-08-31T13:05:42;18.80;99.90
25192;DHT22;13143;50.924;5.320;2023-08-31T13:08:08;18.90;99.90
25192;DHT22;13143;50.924;5.320;2023-08-31T13:10:34;18.90;99.90
25192;DHT22;13143;50.924;5.320;2023-08-31T13:13:00;18.90;99.90
25192;DHT22;13143;50.924;5.320;2023-08-31T13:15:26;18.90;99.90
25192;DHT22;13143;50.924;5.320;2023-08-31T13:17:52;18.90;99.90
25192;DHT22;13143;50.924;5.320;2023-08-31T13:20:18;18.90;99.90
25192;DHT22;13143;50.924;5.320;2023-08-31T13:22:44;18.90;99.90
25192;DHT22;13143;50.924;5.320;2023-08-31T13:25:10;18.90;99.90
25192;DHT22;13143;50.924;5.320;2023-08-31T13:27:37;19.00;99.90
25192;DHT22;13143;50.924;5.320;2023-08-31T13:30:03;19.00;99.90
25192;DHT22;13143;50.924;5.320;2023-08-31T13:32:33;19.00;99.90
25192;DHT22;13143;50.924;5.320;2023-08-31T13:34:59;19.00;99.90
25192;DHT22;13143;50.924;5.320;2023-08-31T13:37:25;19.00;99.90
25192;DHT22;13143;50.924;5.320;2023-08-31T13:39:51;19.00;99.90
25192;DHT22;13143;50.924;5.320;2023-08-31T13:42:20;19.00;99.90
25192;DHT22;13143;50.924;5.320;2023-08-31T13:44:46;19.10;99.90
25192;DHT22;13143;50.924;5.320;2023-08-31T13:47:12;19.00;99.90
25192;DHT22;13143;50.924;5.320;2023-08-31T13:49:40;19.10;99.90
25192;DHT22;13143;50.924;5.320;2023-08-31T13:52:06;19.10;99.90
25192;DHT22;13143;50.924;5.320;2023-08-31T13:54:33;19.10;99.90
25192;DHT22;13143;50.924;5.320;2023-08-31T13:56:59;19.10;99.90
25192;DHT22;13143;50.924;5.320;2023-08-31T13:59:25;19.10;99.90
25192;DHT22;13143;50.924;5.320;2023-08-31T14:01:53;19.10;99.90
25192;DHT22;13143;50.924;5.320;2023-08-31T14:04:20;19.10;99.90
25192;DHT22;13143;50.924;5.320;2023-08-31T14:06:47;19.20;99.90
25192;DHT22;13143;50.924;5.320;2023-08-31T14:09:14;19.10;99.90
25192;DHT22;13143;50.924;5.320;2023-08-31T14:11:39;19.20;99.90
25192;DHT22;13143;50.924;5.320;2023-08-31T14:14:06;19.20;99.90
25192;DHT22;13143;50.924;5.320;2023-08-31T14:16:36;19.20;99.90
25192;DHT22;13143;50.924;5.320;2023-08-31T14:19:05;19.20;99.90
25192;DHT22;13143;50.924;5.320;2023-08-31T14:21:31;19.20;99.90
25192;DHT22;13143;50.924;5.320;2023-08-31T14:23:57;19.20;99.90
25192;DHT22;13143;50.924;5.320;2023-08-31T14:26:24;19.20;99.90
25192;DHT22;13143;50.924;5.320;2023-08-31T14:28:53;19.20;99.90
25192;DHT22;13143;50.924;5.320;2023-08-31T14:31:19;19.20;99.90
25192;DHT22;13143;50.924;5.320;2023-08-31T14:33:45;19.20;99.90
25192;DHT22;13143;50.924;5.320;2023-08-31T14:36:12;19.30;99.90
25192;DHT22;13143;50.924;5.320;2023-08-31T14:38:38;19.20;99.90
25192;DHT22;13143;50.924;5.320;2023-08-31T14:41:04;19.20;99.90
25192;DHT22;13143;50.924;5.320;2023-08-31T14:43:34;19.30;99.90
25192;DHT22;13143;50.924;5.320;2023-08-31T14:46:00;19.30;99.90
25192;DHT22;13143;50.924;5.320;2023-08-31T14:48:30;19.30;99.90
25192;DHT22;13143;50.924;5.320;2023-08-31T14:50:56;19.30;99.90
25192;DHT22;13143;50.924;5.320;2023-08-31T14:53:24;19.30;99.90
25192;DHT22;13143;50.924;5.320;2023-08-31T14:55:51;19.30;99.90
25192;DHT22;13143;50.924;5.320;2023-08-31T14:58:17;19.30;99.90
25192;DHT22;13143;50.924;5.320;2023-08-31T15:00:43;19.30;99.90
25192;DHT22;13143;50.924;5.320;2023-08-31T15:03:09;19.30;99.90
25192;DHT22;13143;50.924;5.320;2023-08-31T15:05:35;19.30;99.90
25192;DHT22;13143;50.924;5.320;2023-08-31T15:08:04;19.40;99.90
25192;DHT22;13143;50.924;5.320;2023-08-31T15:10:30;19.40;99.90
25192;DHT22;13143;50.924;5.320;2023-08-31T15:12:56;19.30;99.90
25192;DHT22;13143;50.924;5.320;2023-08-31T15:15:25;19.30;99.90
25192;DHT22;13143;50.924;5.320;2023-08-31T15:17:51;19.30;99.90
25192;DHT22;13143;50.924;5.320;2023-08-31T15:20:17;19.30;99.90
25192;DHT22;13143;50.924;5.320;2023-08-31T15:22:45;19.40;99.90
25192;DHT22;13143;50.924;5.320;2023-08-31T15:25:11;19.40;99.90
25192;DHT22;13143;50.924;5.320;2023-08-31T15:27:36;19.40;99.90
25192;DHT22;13143;50.924;5.320;2023-08-31T15:30:04;19.40;99.90
25192;DHT22;13143;50.924;5.320;2023-08-31T15:32:30;19.40;99.90
25192;DHT22;13143;50.924;5.320;2023-08-31T15:34:57;19.40;99.90
25192;DHT22;13143;50.924;5.320;2023-08-31T15:37:22;19.40;99.90
25192;DHT22;13143;50.924;5.320;2023-08-31T15:39:48;19.40;99.90
25192;DHT22;13143;50.924;5.320;2023-08-31T15:42:14;19.40;99.90
25192;DHT22;13143;50.924;5.320;2023-08-31T15:44:40;19.40;99.90
25192;DHT22;13143;50.924;5.320;2023-08-31T15:47:06;19.40;99.90
25192;DHT22;13143;50.924;5.320;2023-08-31T15:49:32;19.50;99.90
25192;DHT22;13143;50.924;5.320;2023-08-31T15:51:58;19.50;99.90
25192;DHT22;13143;50.924;5.320;2023-08-31T15:54:25;19.50;99.90
25192;DHT22;13143;50.924;5.320;2023-08-31T15:56:50;19.50;99.90
25192;DHT22;13143;50.924;5.320;2023-08-31T15:59:16;19.50;99.90